Hayase Maru — JD2583 — position and weather

sailwx.info

Track history (hours):
 
Tides and Currents Weather Stations Pressure Air Temp Water Temp Dewpoint Dewpoint Depression Visibility Wind Speed Wind Dir Waves Ship Positions

Hayase Maru

Last reported at 2017-Mar-29 09:28 UTC. Time now 2017-Mar-30 20:37 UTC.
Position N 33°50' E 132°13'.

Length 73 m; draft 4 m.

Type: Ship. MMSI: 431000395.

Date/timePositionNaut miles runAvg speedWind from/ knotsBaromVisibWave heightAir tempDewpointWater temp
2017-Mar-29 09:28N 33°50' E 132°13'1112.2
2017-Mar-29 08:33N 33°51' E 132°26'1313.6
2017-Mar-29 07:34N 33°57' E 132°41'  
2017-Mar-25 11:28N 35°06' E 139°41'1112.1
2017-Mar-25 10:33N 35°17' E 139°45'1010.3
2017-Mar-25 09:33N 35°27' E 139°47'10 9.7
2017-Mar-25 08:33N 35°37' E 139°50'2 1.6
2017-Mar-25 07:30N 35°38' E 139°48'0 0.0
2017-Mar-25 06:28N 35°38' E 139°48'0 0.0
2017-Mar-25 04:10N 35°38' E 139°48'0 0.0
2017-Mar-25 03:10N 35°38' E 139°48'0 0.0
2017-Mar-25 01:28N 35°38' E 139°48'0 0.0
2017-Mar-24 22:16N 35°38' E 139°48'0 0.0
2017-Mar-24 21:22N 35°38' E 139°48'0 0.0
2017-Mar-24 20:10N 35°38' E 139°48'0 0.0
2017-Mar-24 19:22N 35°38' E 139°48'0 0.0
2017-Mar-24 18:28N 35°38' E 139°48'0 0.0
2017-Mar-24 17:04N 35°38' E 139°48'0 0.0
2017-Mar-24 16:22N 35°38' E 139°48'0 0.0
2017-Mar-24 10:28N 35°38' E 139°48'0 0.0
2017-Mar-24 07:28N 35°38' E 139°48'0 0.0
2017-Mar-24 06:22N 35°38' E 139°48'0 0.0
2017-Mar-24 04:16N 35°38' E 139°48'0 0.0
2017-Mar-24 03:31N 35°38' E 139°48'0 0.0
2017-Mar-24 01:28N 35°38' E 139°48'0 0.0
2017-Mar-23 22:28N 35°38' E 139°48'0 0.0
2017-Mar-23 21:22N 35°38' E 139°48'0 0.0
2017-Mar-23 20:22N 35°38' E 139°48'0 0.0
2017-Mar-23 19:22N 35°38' E 139°48'0 0.0
2017-Mar-23 18:22N 35°38' E 139°48'0 0.0
2017-Mar-23 17:28N 35°38' E 139°48'0 0.0
2017-Mar-23 16:28N 35°38' E 139°48'0 0.0
2017-Mar-23 15:28N 35°38' E 139°48'0 0.0
2017-Mar-23 04:13N 35°38' E 139°48'0 0.0
2017-Mar-23 03:28N 35°38' E 139°48'0 0.0
2017-Mar-23 02:19N 35°38' E 139°48'0 0.0
2017-Mar-23 01:28N 35°38' E 139°48'0 0.0
2017-Mar-23 00:28N 35°38' E 139°48'0 0.0
2017-Mar-22 23:33N 35°38' E 139°48'3 2.9
2017-Mar-22 22:33N 35°36' E 139°51'0 0.0
2017-Mar-22 21:18N 35°36' E 139°51'5 6.8
2017-Mar-22 20:33N 35°31' E 139°52'1010.6
2017-Mar-22 19:33N 35°22' E 139°45'1010.0
2017-Mar-22 18:33N 35°12' E 139°47'  
2017-Mar-20 01:31N 34°24' E 135°08'1111.6
2017-Mar-20 00:33N 34°32' E 135°17'9 1.2
2017-Mar-19 17:15N 34°35' E 135°27'0 0.0
2017-Mar-19 16:33N 34°35' E 135°27'0 0.0
2017-Mar-19 14:29N 34°35' E 135°27'0 0.0
2017-Mar-19 12:18N 34°35' E 135°27'  
Track history (hours):
 
Tides and Currents Weather Stations Pressure Air Temp Water Temp Dewpoint Dewpoint Depression Visibility Wind Speed Wind Dir Waves Ship Positions

Hayase Maru

Last reported at 2017-Mar-29 09:28 UTC. Time now 2017-Mar-30 20:37 UTC.
Position N 33°50' E 132°13'.

Length 73 m; draft 4 m.

Type: Ship. MMSI: 431000395.

Date/timePositionNaut miles runAvg speedWind from/ knotsBaromVisibWave heightAir tempDewpointWater temp
2017-Mar-29 09:28N 33°50' E 132°13'1112.2
2017-Mar-29 08:33N 33°51' E 132°26'1313.6
2017-Mar-29 07:34N 33°57' E 132°41'  
2017-Mar-25 11:28N 35°06' E 139°41'1112.1
2017-Mar-25 10:33N 35°17' E 139°45'1010.3
2017-Mar-25 09:33N 35°27' E 139°47'10 9.7
2017-Mar-25 08:33N 35°37' E 139°50'2 1.6
2017-Mar-25 07:30N 35°38' E 139°48'0 0.0
2017-Mar-25 06:28N 35°38' E 139°48'0 0.0
2017-Mar-25 04:10N 35°38' E 139°48'0 0.0
2017-Mar-25 03:10N 35°38' E 139°48'0 0.0
2017-Mar-25 01:28N 35°38' E 139°48'0 0.0
2017-Mar-24 22:16N 35°38' E 139°48'0 0.0
2017-Mar-24 21:22N 35°38' E 139°48'0 0.0
2017-Mar-24 20:10N 35°38' E 139°48'0 0.0
2017-Mar-24 19:22N 35°38' E 139°48'0 0.0
2017-Mar-24 18:28N 35°38' E 139°48'0 0.0
2017-Mar-24 17:04N 35°38' E 139°48'0 0.0
2017-Mar-24 16:22N 35°38' E 139°48'0 0.0
2017-Mar-24 10:28N 35°38' E 139°48'0 0.0
2017-Mar-24 07:28N 35°38' E 139°48'0 0.0
2017-Mar-24 06:22N 35°38' E 139°48'0 0.0
2017-Mar-24 04:16N 35°38' E 139°48'0 0.0
2017-Mar-24 03:31N 35°38' E 139°48'0 0.0
2017-Mar-24 01:28N 35°38' E 139°48'0 0.0
2017-Mar-23 22:28N 35°38' E 139°48'0 0.0
2017-Mar-23 21:22N 35°38' E 139°48'0 0.0
2017-Mar-23 20:22N 35°38' E 139°48'0 0.0
2017-Mar-23 19:22N 35°38' E 139°48'0 0.0
2017-Mar-23 18:22N 35°38' E 139°48'0 0.0
2017-Mar-23 17:28N 35°38' E 139°48'0 0.0
2017-Mar-23 16:28N 35°38' E 139°48'0 0.0
2017-Mar-23 15:28N 35°38' E 139°48'0 0.0
2017-Mar-23 04:13N 35°38' E 139°48'0 0.0
2017-Mar-23 03:28N 35°38' E 139°48'0 0.0
2017-Mar-23 02:19N 35°38' E 139°48'0 0.0
2017-Mar-23 01:28N 35°38' E 139°48'0 0.0
2017-Mar-23 00:28N 35°38' E 139°48'0 0.0
2017-Mar-22 23:33N 35°38' E 139°48'3 2.9
2017-Mar-22 22:33N 35°36' E 139°51'0 0.0
2017-Mar-22 21:18N 35°36' E 139°51'5 6.8
2017-Mar-22 20:33N 35°31' E 139°52'1010.6
2017-Mar-22 19:33N 35°22' E 139°45'1010.0
2017-Mar-22 18:33N 35°12' E 139°47'  
2017-Mar-20 01:31N 34°24' E 135°08'1111.6
2017-Mar-20 00:33N 34°32' E 135°17'9 1.2
2017-Mar-19 17:15N 34°35' E 135°27'0 0.0
2017-Mar-19 16:33N 34°35' E 135°27'0 0.0
2017-Mar-19 14:29N 34°35' E 135°27'0 0.0
2017-Mar-19 12:18N 34°35' E 135°27'  

Dump ship's entire track history